الصفحة الرئيسية
METAR-TAF:

METAR-TAF

مطار :

Bullsbrook, أستراليا

دائرة عرض: 31-40S, خط طول: 116-01E, ارتفاع: 45 متر

مراقبة الطقس الحالي

تاريخ ووقت الإصدار 26 دقيقة قبل الساعة 18:10UTC
ريح 17 عقدة من الشرق تتزايد حتى 27 عقدة
درجة الحرارة 23°درجة مئوية
الرطوبة 53%
ضغط 1011 hPa
الرؤية 10 كم أو أكثر

METAR: YPEA 081810Z AUTO 09017G27KT 9999 // NCD 23/13 Q1011

زمن: 02:36 (18:36 UTC)

توقعات

تاريخ ووقت الإصدار 1ساعة و 35 دقيقة قبل الساعة 17:01UTC
التوقعات صالحة من08 الساعة 18 UTC إلى 09 الساعة 12 UTC
ريح 17 عقدة من الشرق تتزايد حتى 27 عقدة
الرؤية 10 كم أو أكثر
الغيوم لا تقل 1500 م ولا وجود لمزنة ركامية السحاب الأسود
من 08 الساعة 2000 UTC
ريح 15 عقدة من الشرق تتزايد حتى 25 عقدة
الرؤية 10 كم أو أكثر
الغيوم لا تقل 1500 م ولا وجود لمزنة ركامية السحاب الأسود
من 09 الساعة 0300 UTC
ريح 13 عقدة من الشرق
الرؤية 10 كم أو أكثر
الغيوم لا تقل 1500 م ولا وجود لمزنة ركامية السحاب الأسود

TAF: YPEA 081701Z 0818/0912 09017G27KT CAVOK FM082000 08015G25KT CAVOK FM090300 09013KT CAVOK

أرصاد الطقس والتوقعات من أكثر من 4000 مطار (تقارير الطقس للمطار METAR والتنبؤ بالطقس بالمطارTAF).

المحطات المتاحة هي النقط الصفراء والحمراء على الخريطة.

حرك المؤشر فوق النقطة لمعرفة اسم المحطة.

ثم انقر لمعرفة أرصاد وتوقعات الطقس.

لتغيير الخارطة: اضغط على الأزرار الخضراء مع رمز الصليب الأسود للتكبير. على الزر الأخضر مع شرطة للتصغير، أو على الأسهم الخضراء للخرائط المجاورة.


METAR-TAF: